»·PEaware :: AAL640 KPHX-KLAX

AAL640 :: KPHX-KLAX

FLIGHT INFORMATION

Flight Status: Arrived
Operator:
American Airlines
More flights by this operator :: More flights under this callsign
Pilot: Alfredo R. (12181)
Aircraft: BOEING 757-200
(B752)
More flights by this aircraft type
Origin: KPHX Phoenix Sky Harbor Intl
United States
Destination: KLAX Los Angeles Intl
United States
More flights between these airports :: More routes between these airports
Route: +IZZZO6 MESSI ESTWD HLYWD1
File this flight plan on PilotEdge
Remarks: 119.2
Altitude:
(Current/Filed)
30,000ft
Speed:
(Current/Filed)
460kts
Departed: 02-Oct-17 06:23 PM
Arrived: 02-Oct-17 07:23 PM
Distance/Time
Traveled:
321nm/1:00
Distance/Time
To Go:
Arrived

Flight Plot

Page will automatically refresh every two minutes.

Flight plan parsing failed; only flown route is shown


Map Options




Map Legend


Flown Route
Filed Route
Departure Airport
Arrival Airport
Navaid (VOR, NDB)
Fix

Horizontal Profiles

Position Reports

Time Latitude Longitude Heading Altitude Ground
Speed
02-Oct-17 17:47 33.433487 -112.009394 111 1146ft 0kts
02-Oct-17 17:48 33.433487 -112.009394 111 1145ft 0kts
02-Oct-17 17:49 33.433487 -112.009394 111 1145ft 0kts
02-Oct-17 17:50 33.433487 -112.009394 111 1145ft 0kts
02-Oct-17 17:51 33.433487 -112.009394 111 1145ft 0kts
02-Oct-17 17:52 33.433487 -112.009394 111 1145ft 0kts
02-Oct-17 17:53 33.433487 -112.009394 111 1145ft 0kts
02-Oct-17 17:54 33.433487 -112.009394 111 1145ft 0kts
02-Oct-17 17:55 33.433487 -112.009394 111 1145ft 0kts
02-Oct-17 17:56 33.433487 -112.009394 111 1145ft 0kts
02-Oct-17 17:57 33.433487 -112.009394 111 1145ft 0kts
02-Oct-17 17:58 33.433487 -112.009394 111 1145ft 0kts
02-Oct-17 17:59 33.433487 -112.009394 111 1145ft 0kts
02-Oct-17 18:00 33.433487 -112.009394 111 1145ft 0kts
02-Oct-17 18:01 33.433487 -112.009394 111 1145ft 0kts
02-Oct-17 18:02 33.433487 -112.009394 111 1145ft 0kts
02-Oct-17 18:03 33.433487 -112.009394 111 1145ft 0kts
02-Oct-17 18:04 33.433487 -112.009394 111 1145ft 0kts
02-Oct-17 18:05 33.433487 -112.009394 111 1145ft 0kts
02-Oct-17 18:06 33.433487 -112.009394 111 1145ft 0kts
02-Oct-17 18:07 33.433493 -112.009411 111 1145ft 0kts
02-Oct-17 18:08 33.433505 -112.009448 111 1145ft 1kts
02-Oct-17 18:09 33.433679 -112.009976 120 1145ft 1kts
02-Oct-17 18:10 33.433803 -112.010120 174 1145ft 0kts
02-Oct-17 18:11 33.433803 -112.010120 174 1145ft 0kts
02-Oct-17 18:12 33.433803 -112.010120 174 1145ft 0kts
02-Oct-17 18:13 33.433803 -112.010120 174 1145ft 0kts
02-Oct-17 18:14 33.433803 -112.010120 174 1145ft 0kts
02-Oct-17 18:15 33.433803 -112.010120 174 1145ft 0kts
02-Oct-17 18:16 33.433510 -112.010095 177 1145ft 0kts
02-Oct-17 18:17 33.433510 -112.010095 177 1145ft 0kts
02-Oct-17 18:18 33.433510 -112.010095 177 1145ft 0kts
02-Oct-17 18:19 33.433510 -112.010095 177 1145ft 0kts
02-Oct-17 18:20 33.433031 -112.010049 173 1145ft 5kts
02-Oct-17 18:21 33.432137 -112.008193 89 1145ft 11kts
02-Oct-17 18:22 33.432142 -112.003044 90 1145ft 16kts
02-Oct-17 18:23 33.432135 -111.997732 90 1145ft 15kts
02-Oct-17 18:24 33.432079 -111.993742 113 1145ft 2kts
02-Oct-17 18:25 33.432011 -111.993648 137 1145ft 2kts
02-Oct-17 18:26 33.431032 -111.994970 270 1145ft 9kts
02-Oct-17 18:27 33.431132 -112.014580 271 1154ft 154kts
02-Oct-17 18:28 33.431846 -112.075090 272 3228ft 196kts
02-Oct-17 18:29 33.435942 -112.149486 271 6023ft 251kts
02-Oct-17 18:30 33.439025 -112.233335 269 10003ft 263kts
02-Oct-17 18:31 33.442531 -112.329880 271 12268ft 329kts
02-Oct-17 18:32 33.446674 -112.442858 271 15699ft 348kts
02-Oct-17 18:33 33.450076 -112.560725 271 18757ft 364kts
02-Oct-17 18:34 33.451920 -112.682708 269 21243ft 375kts
02-Oct-17 18:35 33.458080 -112.807502 284 24020ft 384kts
02-Oct-17 18:36 33.499707 -112.927366 290 26222ft 398kts
02-Oct-17 18:37 33.543278 -113.050928 290 28262ft 409kts
02-Oct-17 18:38 33.586814 -113.175825 290 29762ft 402kts
02-Oct-17 18:39 33.629570 -113.299156 290 29779ft 402kts
02-Oct-17 18:40 33.672156 -113.422490 290 29779ft 401kts
02-Oct-17 18:41 33.714623 -113.545934 290 29775ft 400kts
02-Oct-17 18:42 33.757008 -113.669014 290 29778ft 397kts
02-Oct-17 18:43 33.799511 -113.789830 290 29746ft 393kts
02-Oct-17 18:44 33.838491 -113.911828 289 29747ft 392kts
02-Oct-17 18:45 33.878948 -114.033038 289 29743ft 393kts
02-Oct-17 18:46 33.912782 -114.156853 280 29745ft 390kts
02-Oct-17 18:47 33.934812 -114.284403 280 29742ft 392kts
02-Oct-17 18:48 33.956490 -114.412490 280 29741ft 392kts
02-Oct-17 18:49 33.977880 -114.540030 280 29737ft 391kts
02-Oct-17 18:50 33.999774 -114.668026 280 29743ft 391kts
02-Oct-17 18:51 34.021642 -114.796221 279 29745ft 395kts
02-Oct-17 18:52 34.042354 -114.925019 279 29741ft 394kts
02-Oct-17 18:53 34.062853 -115.054198 279 29743ft 392kts
02-Oct-17 18:54 34.083619 -115.182968 279 29742ft 392kts
02-Oct-17 18:55 34.104423 -115.312050 279 29742ft 394kts
02-Oct-17 18:56 34.124765 -115.438914 279 29879ft 393kts
02-Oct-17 18:57 34.147779 -115.567411 280 29871ft 392kts
02-Oct-17 18:58 34.163941 -115.696373 266 29261ft 388kts
02-Oct-17 18:59 34.152593 -115.819305 263 28249ft 391kts
02-Oct-17 19:00 34.139158 -115.949906 263 27078ft 395kts
02-Oct-17 19:01 34.126174 -116.081152 263 25900ft 394kts
02-Oct-17 19:02 34.113300 -116.211268 263 24839ft 390kts
02-Oct-17 19:03 34.100137 -116.340491 263 23804ft 386kts
02-Oct-17 19:04 34.087593 -116.462503 263 22693ft 355kts
02-Oct-17 19:05 34.075163 -116.577029 262 21668ft 349kts
02-Oct-17 19:06 34.064375 -116.690894 262 20566ft 341kts
02-Oct-17 19:07 34.053543 -116.803525 263 19555ft 336kts
02-Oct-17 19:08 34.042266 -116.914537 261 18557ft 331kts
02-Oct-17 19:09 34.028243 -117.023285 261 17557ft 328kts
02-Oct-17 19:10 34.015414 -117.131241 262 16552ft 325kts
02-Oct-17 19:11 34.002622 -117.238344 261 15539ft 322kts
02-Oct-17 19:12 33.990069 -117.341625 262 14450ft 307kts
02-Oct-17 19:13 33.978212 -117.442127 263 13427ft 304kts
02-Oct-17 19:14 33.982787 -117.541525 281 12423ft 302kts
02-Oct-17 19:15 34.000038 -117.640154 281 11404ft 297kts
02-Oct-17 19:16 34.002104 -117.732845 264 10373ft 277kts
02-Oct-17 19:17 33.993632 -117.821652 264 9289ft 255kts
02-Oct-17 19:18 33.985676 -117.903773 264 8257ft 244kts
02-Oct-17 19:19 33.978123 -117.980477 264 7186ft 221kts
02-Oct-17 19:20 33.971033 -118.052089 263 6244ft 209kts
02-Oct-17 19:21 33.964453 -118.118018 263 5463ft 193kts
02-Oct-17 19:22 33.957966 -118.182198 263 4184ft 194kts
02-Oct-17 19:23 33.951573 -118.244501 263 2859ft 173kts
02-Oct-17 19:24 33.946062 -118.298955 263 1550ft 161kts
02-Oct-17 19:25 33.941227 -118.345867 262 742ft 128kts
02-Oct-17 19:26 33.936918 -118.387330 260 137ft 106kts
02-Oct-17 19:27 33.935897 -118.402595 288 136ft 10kts
02-Oct-17 19:28 33.936240 -118.404218 267 136ft 9kts
02-Oct-17 19:29 33.935939 -118.407779 275 136ft 12kts
02-Oct-17 19:30 33.938340 -118.409131 15 136ft 11kts
02-Oct-17 19:31 33.939105 -118.405623 52 136ft 8kts
02-Oct-17 19:32 33.940437 -118.406036 283 136ft 2kts
02-Oct-17 19:33 33.940453 -118.406122 282 136ft 0kts
02-Oct-17 19:34 33.940453 -118.406122 282 136ft 0kts
02-Oct-17 19:35 33.940453 -118.406122 282 136ft 0kts
02-Oct-17 19:36 33.940453 -118.406122 282 136ft 0kts
02-Oct-17 19:37 33.940453 -118.406122 282 136ft 0kts

Navigation Log

Ident Type
Flight plan parsing failed, navigation log unavailable